Time;durP1;ratioP1;P1;durP2;ratioP2;P2;SDS_P1;SDS_P2;PMS_P1;PMS_P2;Temp;Humidity;BMP_temperature;BMP_pressure;BME280_temperature;BME280_humidity;BME280_pressure;Samples;Min_cycle;Max_cycle;Signal;HPM_P1;HPM_P2
2022/02/16 00:00:06;;;;;;;;;1.00;1.00;;;;;;;;5054986;28;47205;-77
2022/02/16 00:02:32;;;;;;;;;2.00;2.00;;;;;;;;5055105;28;45509;-77
2022/02/16 00:04:57;;;;;;;;;1.00;0.00;;;;;;;;5056326;28;45336;-77
2022/02/16 00:07:22;;;;;;;;;1.00;1.00;;;;;;;;5056063;28;46159;-77
2022/02/16 00:09:47;;;;;;;;;0.50;0.50;;;;;;;;5058678;28;46379;-77
2022/02/16 00:12:12;;;;;;;;;2.00;0.00;;;;;;;;5058829;28;45300;-77
2022/02/16 00:14:37;;;;;;;;;2.50;1.00;;;;;;;;5060390;28;45419;-77
2022/02/16 00:17:03;;;;;;;;;1.25;1.00;;;;;;;;5060581;28;45438;-77
2022/02/16 00:19:28;;;;;;;;;0.00;0.00;;;;;;;;5039890;28;48015;-77
2022/02/16 00:21:53;;;;;;;;;0.00;0.00;;;;;;;;5058096;27;45481;-77
2022/02/16 00:24:19;;;;;;;;;0.00;0.00;;;;;;;;5058667;28;45405;-76
2022/02/16 00:26:44;;;;;;;;;2.00;0.75;;;;;;;;5058126;27;45418;-77
2022/02/16 00:29:11;;;;;;;;;0.00;0.00;;;;;;;;5058369;28;45373;-76
2022/02/16 00:31:36;;;;;;;;;0.00;0.00;;;;;;;;5057619;28;45392;-76
2022/02/16 00:34:02;;;;;;;;;0.00;0.00;;;;;;;;5058641;28;45229;-76
2022/02/16 00:36:27;;;;;;;;;0.75;0.75;;;;;;;;5057741;28;45375;-76
2022/02/16 00:38:52;;;;;;;;;1.00;1.00;;;;;;;;5057975;28;45407;-77
2022/02/16 00:41:17;;;;;;;;;0.00;0.00;;;;;;;;5058497;28;45519;-77
2022/02/16 00:43:42;;;;;;;;;1.00;1.00;;;;;;;;5056634;28;45428;-77
2022/02/16 00:46:08;;;;;;;;;1.00;1.00;;;;;;;;5057948;28;45613;-78
2022/02/16 00:48:33;;;;;;;;;2.00;1.00;;;;;;;;5057400;28;46404;-76
2022/02/16 00:50:58;;;;;;;;;0.00;0.00;;;;;;;;5057859;28;45284;-77
2022/02/16 00:53:23;;;;;;;;;0.00;0.00;;;;;;;;5056535;28;45475;-77
2022/02/16 00:55:49;;;;;;;;;0.00;0.00;;;;;;;;5058130;28;45394;-77
2022/02/16 00:58:14;;;;;;;;;0.00;0.00;;;;;;;;5059408;28;46853;-77
2022/02/16 01:00:39;;;;;;;;;0.00;0.00;;;;;;;;5057821;28;45395;-76
2022/02/16 01:03:05;;;;;;;;;0.00;0.00;;;;;;;;5057952;28;45440;-77
2022/02/16 01:05:30;;;;;;;;;0.50;0.00;;;;;;;;5057745;28;45983;-76
2022/02/16 01:07:56;;;;;;;;;0.00;0.00;;;;;;;;5057810;28;47407;-75
2022/02/16 01:10:21;;;;;;;;;0.00;0.00;;;;;;;;5057012;28;45296;-74
2022/02/16 01:12:46;;;;;;;;;0.25;0.00;;;;;;;;5057670;28;45273;-77
2022/02/16 01:15:12;;;;;;;;;0.00;0.00;;;;;;;;5057363;28;45538;-74
2022/02/16 01:17:37;;;;;;;;;0.00;0.00;;;;;;;;5057523;28;46806;-75
2022/02/16 01:20:04;;;;;;;;;0.00;0.00;;;;;;;;5055427;28;45359;-75
2022/02/16 01:22:29;;;;;;;;;1.75;1.00;;;;;;;;5056809;28;45466;-75
2022/02/16 01:24:54;;;;;;;;;0.75;0.75;;;;;;;;5057111;28;45605;-75
2022/02/16 01:27:19;;;;;;;;;0.00;0.00;;;;;;;;5057059;28;45840;-75
2022/02/16 01:29:45;;;;;;;;;0.00;0.00;;;;;;;;5057158;28;45680;-77
2022/02/16 01:32:10;;;;;;;;;2.00;0.50;;;;;;;;5058500;28;45531;-80
2022/02/16 01:34:35;;;;;;;;;0.00;0.00;;;;;;;;5071786;28;45197;-81
2022/02/16 01:37:00;;;;;;;;;1.00;1.00;;;;;;;;5069642;28;46049;-79
2022/02/16 01:39:25;;;;;;;;;0.00;0.00;;;;;;;;5063935;28;45480;-81
2022/02/16 01:41:53;;;;;;;;;0.00;0.00;;;;;;;;5057603;28;45267;-81
2022/02/16 01:44:19;;;;;;;;;1.00;1.00;;;;;;;;5057590;27;45370;-82
2022/02/16 01:46:55;;;;;;;;;0.00;0.00;;;;;;;;5056367;28;46167;-81
2022/02/16 01:49:21;;;;;;;;;2.00;0.00;;;;;;;;5055825;28;45359;-81
2022/02/16 01:51:47;;;;;;;;;1.00;0.00;;;;;;;;5057477;28;45602;-80
2022/02/16 01:54:12;;;;;;;;;0.50;0.00;;;;;;;;5057037;28;45334;-82
2022/02/16 01:56:38;;;;;;;;;0.00;0.00;;;;;;;;5056944;28;46081;-81
2022/02/16 01:59:04;;;;;;;;;0.00;0.00;;;;;;;;5058972;28;45360;-81
2022/02/16 02:01:29;;;;;;;;;0.25;0.25;;;;;;;;5056273;28;45309;-81
2022/02/16 02:03:54;;;;;;;;;0.00;0.00;;;;;;;;5056830;28;45597;-81
2022/02/16 02:06:19;;;;;;;;;1.50;0.75;;;;;;;;5056792;28;45933;-82
2022/02/16 02:08:45;;;;;;;;;1.00;1.00;;;;;;;;5056414;28;45596;-81
2022/02/16 02:11:10;;;;;;;;;0.00;0.00;;;;;;;;5040333;28;45352;-81
2022/02/16 02:13:35;;;;;;;;;2.00;1.00;;;;;;;;5040412;28;45248;-81
2022/02/16 02:16:00;;;;;;;;;0.50;0.50;;;;;;;;5057769;28;46397;-80
2022/02/16 02:18:26;;;;;;;;;2.00;0.00;;;;;;;;5058463;28;45470;-81
2022/02/16 02:20:51;;;;;;;;;1.25;1.25;;;;;;;;5058698;27;45346;-81
2022/02/16 02:23:16;;;;;;;;;0.00;0.00;;;;;;;;5059729;28;45522;-81
2022/02/16 02:25:42;;;;;;;;;3.00;1.00;;;;;;;;5041216;28;45650;-80
2022/02/16 02:28:08;;;;;;;;;1.00;1.00;;;;;;;;5057794;28;45503;-80
2022/02/16 02:30:33;;;;;;;;;1.00;0.00;;;;;;;;5056941;28;45683;-81
2022/02/16 02:32:59;;;;;;;;;2.75;1.00;;;;;;;;5058426;28;45660;-81
2022/02/16 02:35:25;;;;;;;;;0.00;0.00;;;;;;;;5056916;28;46566;-81
2022/02/16 02:37:50;;;;;;;;;0.00;0.00;;;;;;;;5056752;28;45298;-81
2022/02/16 02:40:15;;;;;;;;;0.00;0.00;;;;;;;;5055573;28;45280;-81
2022/02/16 02:42:42;;;;;;;;;0.00;0.00;;;;;;;;5056703;28;45551;-81
2022/02/16 02:45:08;;;;;;;;;0.25;0.00;;;;;;;;5059039;28;46191;-81
2022/02/16 02:47:34;;;;;;;;;0.00;0.00;;;;;;;;5054772;28;45416;-81
2022/02/16 02:49:59;;;;;;;;;0.00;0.00;;;;;;;;5057061;28;45343;-81
2022/02/16 02:52:24;;;;;;;;;0.00;0.00;;;;;;;;5038569;28;45562;-81
2022/02/16 02:54:49;;;;;;;;;0.25;0.25;;;;;;;;5058344;28;47457;-80
2022/02/16 02:57:15;;;;;;;;;0.50;0.00;;;;;;;;5056695;27;45308;-81
2022/02/16 02:59:40;;;;;;;;;1.00;0.00;;;;;;;;5056254;28;45458;-81
2022/02/16 03:02:05;;;;;;;;;0.25;0.00;;;;;;;;5038281;28;45634;-81
2022/02/16 03:04:30;;;;;;;;;0.00;0.00;;;;;;;;5055218;28;46108;-81
2022/02/16 03:06:55;;;;;;;;;0.00;0.00;;;;;;;;5056685;28;45355;-80
2022/02/16 03:09:21;;;;;;;;;0.00;0.00;;;;;;;;5058418;28;47332;-81
2022/02/16 03:11:46;;;;;;;;;0.00;0.00;;;;;;;;5057075;28;45399;-81
2022/02/16 03:14:11;;;;;;;;;0.00;0.00;;;;;;;;5056801;28;45646;-81
2022/02/16 03:16:36;;;;;;;;;0.50;0.50;;;;;;;;5054997;28;45409;-82
2022/02/16 03:19:01;;;;;;;;;0.00;0.00;;;;;;;;5056420;28;45452;-81
2022/02/16 03:21:27;;;;;;;;;1.00;0.00;;;;;;;;5058635;28;45480;-81
2022/02/16 03:23:52;;;;;;;;;0.00;0.00;;;;;;;;5061107;27;46313;-81
2022/02/16 03:26:17;;;;;;;;;0.00;0.00;;;;;;;;5068774;28;45328;-82
2022/02/16 03:28:42;;;;;;;;;1.25;0.00;;;;;;;;5066240;28;45331;-81
2022/02/16 03:31:07;;;;;;;;;1.00;0.00;;;;;;;;5056176;28;45379;-81
2022/02/16 03:33:33;;;;;;;;;1.00;0.00;;;;;;;;5056427;28;46120;-81
2022/02/16 03:35:58;;;;;;;;;0.25;0.25;;;;;;;;5055885;28;45238;-81
2022/02/16 03:38:24;;;;;;;;;0.00;0.00;;;;;;;;5058428;27;45363;-81
2022/02/16 03:40:49;;;;;;;;;0.00;0.00;;;;;;;;5055759;28;45263;-81
2022/02/16 03:43:14;;;;;;;;;1.00;0.00;;;;;;;;5039196;28;46752;-81
2022/02/16 03:45:39;;;;;;;;;0.00;0.00;;;;;;;;5058551;28;45474;-82
2022/02/16 03:48:05;;;;;;;;;0.00;0.00;;;;;;;;5058971;28;45367;-82
2022/02/16 03:50:30;;;;;;;;;0.00;0.00;;;;;;;;5059007;28;45794;-81
2022/02/16 03:52:55;;;;;;;;;0.00;0.00;;;;;;;;5059095;28;45511;-81
2022/02/16 03:55:20;;;;;;;;;0.00;0.00;;;;;;;;5058172;28;45363;-82
2022/02/16 03:57:46;;;;;;;;;0.00;0.00;;;;;;;;5059074;28;45379;-82
2022/02/16 04:00:11;;;;;;;;;0.00;0.00;;;;;;;;5058570;28;45220;-82
2022/02/16 04:02:37;;;;;;;;;0.00;0.00;;;;;;;;5058855;28;45683;-81
2022/02/16 04:05:04;;;;;;;;;1.00;0.00;;;;;;;;5061564;28;47773;-82
2022/02/16 04:07:29;;;;;;;;;1.00;0.00;;;;;;;;5071532;28;44612;-82
2022/02/16 04:09:55;;;;;;;;;0.00;0.00;;;;;;;;5071507;27;44570;-82
2022/02/16 04:12:20;;;;;;;;;0.00;0.00;;;;;;;;5059127;28;45951;-81
2022/02/16 04:14:45;;;;;;;;;0.00;0.00;;;;;;;;5059871;28;45544;-82
2022/02/16 04:17:10;;;;;;;;;0.00;0.00;;;;;;;;5058901;28;45280;-82
2022/02/16 04:19:35;;;;;;;;;0.00;0.00;;;;;;;;5058290;28;45568;-83
2022/02/16 04:22:01;;;;;;;;;0.00;0.00;;;;;;;;5041516;28;47027;-82
2022/02/16 04:24:26;;;;;;;;;0.00;0.00;;;;;;;;5058678;28;45438;-82
2022/02/16 04:26:51;;;;;;;;;0.00;0.00;;;;;;;;5058359;27;45585;-81
2022/02/16 04:29:16;;;;;;;;;0.00;0.00;;;;;;;;5058168;28;45443;-81
2022/02/16 04:31:42;;;;;;;;;0.75;0.00;;;;;;;;5059470;27;46152;-81
2022/02/16 04:34:07;;;;;;;;;1.00;1.00;;;;;;;;5059284;28;45363;-81
2022/02/16 04:36:33;;;;;;;;;0.00;0.00;;;;;;;;5060250;28;45143;-83
2022/02/16 04:38:59;;;;;;;;;0.00;0.00;;;;;;;;5059416;28;45279;-82
2022/02/16 04:41:25;;;;;;;;;0.00;0.00;;;;;;;;5040587;28;47303;-82
2022/02/16 04:43:50;;;;;;;;;0.00;0.00;;;;;;;;5058235;28;45770;-82
2022/02/16 04:46:16;;;;;;;;;0.00;0.00;;;;;;;;5057782;28;45488;-81
2022/02/16 04:48:41;;;;;;;;;0.00;0.00;;;;;;;;5057395;28;45513;-82
2022/02/16 04:51:06;;;;;;;;;0.00;0.00;;;;;;;;5060138;28;46113;-82
2022/02/16 04:53:35;;;;;;;;;0.00;0.00;;;;;;;;5063593;28;45434;-82
2022/02/16 04:56:04;;;;;;;;;0.00;0.00;;;;;;;;5064898;28;45412;-81
2022/02/16 04:58:29;;;;;;;;;0.00;0.00;;;;;;;;5043627;28;45441;-81
2022/02/16 05:00:54;;;;;;;;;0.00;0.00;;;;;;;;5065093;28;45998;-81
2022/02/16 05:03:20;;;;;;;;;0.00;0.00;;;;;;;;5063922;28;45255;-81
2022/02/16 05:05:45;;;;;;;;;0.00;0.00;;;;;;;;5059895;28;45228;-81
2022/02/16 05:08:10;;;;;;;;;0.00;0.00;;;;;;;;5059412;28;45789;-81
2022/02/16 05:10:35;;;;;;;;;0.00;0.00;;;;;;;;5058004;28;47134;-81
2022/02/16 05:13:00;;;;;;;;;0.00;0.00;;;;;;;;5058048;28;45347;-76
2022/02/16 05:15:26;;;;;;;;;0.00;0.00;;;;;;;;5057547;28;45511;-76
2022/02/16 05:17:51;;;;;;;;;1.00;0.00;;;;;;;;5058463;28;45227;-75
2022/02/16 05:20:17;;;;;;;;;0.00;0.00;;;;;;;;5058785;28;45490;-75
2022/02/16 05:22:42;;;;;;;;;0.00;0.00;;;;;;;;5058001;28;45558;-76
2022/02/16 05:25:07;;;;;;;;;1.00;1.00;;;;;;;;5057360;28;45391;-75
2022/02/16 05:27:32;;;;;;;;;0.00;0.00;;;;;;;;5058497;28;45596;-75
2022/02/16 05:29:58;;;;;;;;;0.00;0.00;;;;;;;;5056730;28;46201;-74
2022/02/16 05:32:23;;;;;;;;;0.00;0.00;;;;;;;;5056995;28;45533;-75
2022/02/16 05:34:48;;;;;;;;;0.00;0.00;;;;;;;;5057150;28;45338;-76
2022/02/16 05:37:13;;;;;;;;;1.00;0.00;;;;;;;;5056177;28;45405;-75
2022/02/16 05:39:39;;;;;;;;;0.00;0.00;;;;;;;;5056048;27;45562;-75
2022/02/16 05:42:04;;;;;;;;;0.00;0.00;;;;;;;;5056330;28;45482;-76
2022/02/16 05:44:29;;;;;;;;;1.25;0.00;;;;;;;;5056154;28;45316;-76
2022/02/16 05:46:54;;;;;;;;;0.00;0.00;;;;;;;;5054985;28;45526;-77
2022/02/16 05:49:20;;;;;;;;;0.00;0.00;;;;;;;;5055950;28;46130;-77
2022/02/16 05:51:45;;;;;;;;;1.00;1.00;;;;;;;;5056191;27;45428;-77
2022/02/16 05:54:11;;;;;;;;;0.00;0.00;;;;;;;;5056334;28;45470;-76
2022/02/16 05:56:36;;;;;;;;;1.00;0.00;;;;;;;;5056137;28;45491;-77
2022/02/16 05:59:01;;;;;;;;;0.00;0.00;;;;;;;;5056557;28;45729;-77
2022/02/16 06:01:26;;;;;;;;;0.00;0.00;;;;;;;;5055398;28;45391;-82
2022/02/16 06:03:52;;;;;;;;;0.00;0.00;;;;;;;;5059469;28;45347;-81
2022/02/16 06:06:18;;;;;;;;;0.00;0.00;;;;;;;;5057333;28;45411;-82
2022/02/16 06:08:43;;;;;;;;;0.00;0.00;;;;;;;;5057590;28;46696;-82
2022/02/16 06:11:10;;;;;;;;;0.00;0.00;;;;;;;;5057093;28;45469;-82
2022/02/16 06:13:35;;;;;;;;;0.00;0.00;;;;;;;;5058384;28;45355;-82
2022/02/16 06:16:00;;;;;;;;;0.00;0.00;;;;;;;;5056568;28;45663;-82
2022/02/16 06:18:26;;;;;;;;;0.00;0.00;;;;;;;;5055984;28;46321;-79
2022/02/16 06:20:51;;;;;;;;;0.00;0.00;;;;;;;;5055846;28;45452;-78
2022/02/16 06:23:16;;;;;;;;;0.75;0.00;;;;;;;;5055962;28;45443;-77
2022/02/16 06:25:42;;;;;;;;;0.00;0.00;;;;;;;;5055767;28;45390;-83
2022/02/16 06:28:07;;;;;;;;;0.75;0.00;;;;;;;;5056125;28;46404;-82
2022/02/16 06:30:32;;;;;;;;;0.00;0.00;;;;;;;;5056587;28;45530;-83
2022/02/16 06:32:57;;;;;;;;;0.00;0.00;;;;;;;;5057052;27;45375;-84
2022/02/16 06:35:23;;;;;;;;;1.00;0.00;;;;;;;;5054920;28;45507;-83
2022/02/16 06:37:48;;;;;;;;;0.75;0.75;;;;;;;;5057276;27;45367;-83
2022/02/16 06:40:14;;;;;;;;;0.00;0.00;;;;;;;;5057498;28;45544;-82
2022/02/16 06:42:39;;;;;;;;;0.00;0.00;;;;;;;;5056346;28;45422;-83
2022/02/16 06:45:05;;;;;;;;;0.00;0.00;;;;;;;;5057285;28;47840;-83
2022/02/16 06:47:31;;;;;;;;;0.00;0.00;;;;;;;;5056361;28;47349;-83
2022/02/16 06:49:56;;;;;;;;;0.75;0.75;;;;;;;;5057897;28;45341;-82
2022/02/16 06:52:21;;;;;;;;;0.00;0.00;;;;;;;;5058237;28;45255;-83
2022/02/16 06:54:46;;;;;;;;;0.00;0.00;;;;;;;;5059485;28;45380;-83
2022/02/16 06:57:11;;;;;;;;;0.00;0.00;;;;;;;;5058097;28;47337;-82
2022/02/16 06:59:37;;;;;;;;;0.00;0.00;;;;;;;;5057380;28;45308;-82
2022/02/16 07:02:02;;;;;;;;;0.25;0.25;;;;;;;;5056977;28;45386;-82
2022/02/16 07:04:27;;;;;;;;;0.00;0.00;;;;;;;;5057126;28;45284;-82
2022/02/16 07:06:53;;;;;;;;;0.00;0.00;;;;;;;;5057290;28;45458;-83
2022/02/16 07:09:18;;;;;;;;;2.50;0.00;;;;;;;;5062197;28;45480;-82
2022/02/16 07:11:43;;;;;;;;;0.25;0.00;;;;;;;;5064753;28;45298;-82
2022/02/16 07:14:09;;;;;;;;;0.25;0.00;;;;;;;;5062274;28;45336;-82
2022/02/16 07:16:34;;;;;;;;;0.00;0.00;;;;;;;;5061805;28;46656;-82
2022/02/16 07:18:59;;;;;;;;;0.00;0.00;;;;;;;;5063679;28;45390;-83
2022/02/16 07:21:26;;;;;;;;;0.00;0.00;;;;;;;;5064769;28;45397;-83
2022/02/16 07:23:52;;;;;;;;;0.00;0.00;;;;;;;;5064265;27;45269;-84
2022/02/16 07:26:17;;;;;;;;;0.75;0.75;;;;;;;;5064178;28;46778;-83
2022/02/16 07:28:42;;;;;;;;;0.00;0.00;;;;;;;;5062945;28;45379;-83
2022/02/16 07:31:08;;;;;;;;;0.50;0.50;;;;;;;;5060663;28;45388;-83
2022/02/16 07:33:33;;;;;;;;;1.25;0.00;;;;;;;;5064333;28;45313;-84
2022/02/16 07:35:59;;;;;;;;;1.00;1.00;;;;;;;;5060778;28;45408;-75
2022/02/16 07:38:24;;;;;;;;;0.75;0.00;;;;;;;;5042610;28;46062;-83
2022/02/16 07:40:49;;;;;;;;;1.75;1.00;;;;;;;;5061849;28;45507;-85
2022/02/16 07:43:14;;;;;;;;;0.75;0.75;;;;;;;;5044255;28;45432;-84
2022/02/16 07:45:40;;;;;;;;;3.50;1.00;;;;;;;;5060770;28;46131;-84
2022/02/16 07:48:06;;;;;;;;;1.00;1.00;;;;;;;;5061037;28;45659;-84
2022/02/16 07:50:31;;;;;;;;;2.00;0.00;;;;;;;;5062951;28;45323;-85
2022/02/16 07:52:59;;;;;;;;;1.00;1.00;;;;;;;;5062276;28;45296;-84
2022/02/16 07:55:27;;;;;;;;;0.00;0.00;;;;;;;;5042518;28;46495;-85
2022/02/16 07:57:54;;;;;;;;;0.00;0.00;;;;;;;;5061173;28;45400;-84
2022/02/16 08:00:19;;;;;;;;;2.25;2.00;;;;;;;;5060468;28;45457;-84
2022/02/16 08:02:44;;;;;;;;;1.00;1.00;;;;;;;;5061121;28;45497;-85
2022/02/16 08:05:10;;;;;;;;;5.00;0.50;;;;;;;;5066787;27;45464;-83
2022/02/16 08:07:35;;;;;;;;;3.50;0.25;;;;;;;;5064621;28;46154;-83
2022/02/16 08:10:00;;;;;;;;;4.00;2.00;;;;;;;;5067681;28;45469;-83
2022/02/16 08:12:25;;;;;;;;;1.25;1.25;;;;;;;;5064268;28;45456;-83
2022/02/16 08:14:50;;;;;;;;;5.50;1.75;;;;;;;;5062209;28;47168;-84
2022/02/16 08:17:15;;;;;;;;;2.50;1.50;;;;;;;;5061982;28;45713;-84
2022/02/16 08:19:41;;;;;;;;;1.75;1.00;;;;;;;;5043241;28;45338;-83
2022/02/16 08:22:06;;;;;;;;;1.00;0.00;;;;;;;;5062146;28;45362;-84
2022/02/16 08:24:31;;;;;;;;;2.75;1.00;;;;;;;;5066564;28;46338;-83
2022/02/16 08:26:57;;;;;;;;;1.75;1.75;;;;;;;;5060126;28;45459;-84
2022/02/16 08:29:24;;;;;;;;;0.00;0.00;;;;;;;;5057775;28;45717;-84
2022/02/16 08:31:49;;;;;;;;;6.00;1.75;;;;;;;;5057817;28;45341;-82
2022/02/16 08:34:14;;;;;;;;;1.00;1.00;;;;;;;;5059032;28;46616;-83
2022/02/16 08:36:40;;;;;;;;;1.50;1.00;;;;;;;;5056893;28;45474;-84
2022/02/16 08:39:05;;;;;;;;;0.00;0.00;;;;;;;;5057224;28;45417;-83
2022/02/16 08:41:30;;;;;;;;;2.00;0.75;;;;;;;;5057142;28;45457;-85
2022/02/16 08:43:55;;;;;;;;;0.00;0.00;;;;;;;;5057331;28;46083;-84
2022/02/16 08:46:21;;;;;;;;;1.00;1.00;;;;;;;;5056979;28;45266;-83
2022/02/16 08:48:46;;;;;;;;;1.00;1.00;;;;;;;;5057435;28;45247;-83
2022/02/16 08:51:12;;;;;;;;;0.00;0.00;;;;;;;;5058750;28;45550;-84
2022/02/16 08:53:37;;;;;;;;;0.50;0.00;;;;;;;;5057128;28;46827;-83
2022/02/16 08:56:03;;;;;;;;;1.50;0.00;;;;;;;;5056596;28;45373;-83
2022/02/16 08:58:28;;;;;;;;;0.00;0.00;;;;;;;;5057729;28;45424;-83
2022/02/16 09:00:54;;;;;;;;;1.25;0.50;;;;;;;;5068780;28;45594;-83
2022/02/16 09:03:19;;;;;;;;;1.00;0.00;;;;;;;;5068802;27;46285;-83
2022/02/16 09:05:44;;;;;;;;;1.25;1.00;;;;;;;;5058562;28;45577;-84
2022/02/16 09:08:10;;;;;;;;;2.00;1.75;;;;;;;;5058240;28;45494;-83
2022/02/16 09:10:35;;;;;;;;;1.00;1.00;;;;;;;;5056300;28;45444;-83
2022/02/16 09:13:00;;;;;;;;;1.50;1.00;;;;;;;;5038091;28;46158;-84
2022/02/16 09:15:26;;;;;;;;;6.75;6.25;;;;;;;;5059642;28;45357;-83
2022/02/16 09:17:55;;;;;;;;;1.00;1.00;;;;;;;;5062792;27;45330;-83
2022/02/16 09:20:20;;;;;;;;;0.25;0.25;;;;;;;;5061485;27;45552;-84
2022/02/16 09:22:46;;;;;;;;;1.25;1.25;;;;;;;;5057085;28;46137;-84
2022/02/16 09:25:11;;;;;;;;;20.50;16.75;;;;;;;;5056491;28;45469;-84
2022/02/16 09:27:36;;;;;;;;;1.00;0.00;;;;;;;;5056823;28;45429;-84
2022/02/16 09:30:02;;;;;;;;;1.50;0.00;;;;;;;;5056489;28;45437;-84
2022/02/16 09:32:27;;;;;;;;;2.00;2.00;;;;;;;;5056188;28;45454;-81
2022/02/16 09:34:54;;;;;;;;;0.00;0.00;;;;;;;;5057825;28;45441;-83
2022/02/16 09:37:20;;;;;;;;;2.00;0.50;;;;;;;;5057829;28;45533;-84
2022/02/16 09:39:45;;;;;;;;;1.25;0.50;;;;;;;;5057828;28;45484;-84
2022/02/16 09:42:10;;;;;;;;;0.00;0.00;;;;;;;;5040932;28;45412;-84
2022/02/16 09:44:56;;;;;;;;;0.00;0.00;;;;;;;;5057219;28;45443;-84
2022/02/16 09:47:21;;;;;;;;;0.50;0.50;;;;;;;;5058453;28;45435;-83
2022/02/16 09:49:46;;;;;;;;;0.00;0.00;;;;;;;;5057949;28;45323;-83
2022/02/16 09:52:12;;;;;;;;;2.00;0.25;;;;;;;;5058150;28;45610;-84
2022/02/16 09:54:38;;;;;;;;;2.00;1.00;;;;;;;;5057056;28;45355;-83
2022/02/16 09:57:03;;;;;;;;;0.25;0.25;;;;;;;;5055739;28;45305;-83
2022/02/16 09:59:28;;;;;;;;;2.50;1.50;;;;;;;;5056687;28;45401;-83
2022/02/16 10:01:58;;;;;;;;;4.25;0.00;;;;;;;;5054745;28;46300;-84
2022/02/16 10:04:27;;;;;;;;;0.00;0.00;;;;;;;;5054538;28;46827;-82
2022/02/16 10:06:53;;;;;;;;;4.50;3.75;;;;;;;;5061881;28;45383;-84
2022/02/16 10:09:31;;;;;;;;;0.00;0.00;;;;;;;;5057655;28;45392;-84
2022/02/16 10:12:00;;;;;;;;;2.00;0.25;;;;;;;;5056255;28;47156;-83
2022/02/16 10:14:36;;;;;;;;;2.00;1.00;;;;;;;;5058122;28;45391;-83
2022/02/16 10:17:17;;;;;;;;;0.50;0.50;;;;;;;;5040867;28;45353;-83
2022/02/16 10:19:54;;;;;;;;;0.00;0.00;;;;;;;;5054631;28;45428;-83
2022/02/16 10:22:21;;;;;;;;;0.00;0.00;;;;;;;;5055193;28;46950;-83
2022/02/16 10:24:46;;;;;;;;;0.00;0.00;;;;;;;;5060451;28;45308;-84
2022/02/16 10:27:12;;;;;;;;;1.50;0.00;;;;;;;;5059405;28;45386;-82
2022/02/16 10:29:38;;;;;;;;;2.00;0.75;;;;;;;;5060809;28;45469;-84
2022/02/16 10:32:04;;;;;;;;;1.25;1.25;;;;;;;;5058427;28;45995;-83
2022/02/16 10:34:45;;;;;;;;;5.50;3.00;;;;;;;;5057051;28;45350;-83
2022/02/16 10:37:11;;;;;;;;;6.50;4.25;;;;;;;;5058288;27;45420;-83
2022/02/16 10:39:36;;;;;;;;;1.50;0.00;;;;;;;;5056664;27;45506;-83
2022/02/16 10:42:03;;;;;;;;;2.00;1.75;;;;;;;;5056077;28;47476;-83
2022/02/16 10:44:31;;;;;;;;;0.75;0.75;;;;;;;;5054820;28;45330;-82
2022/02/16 10:46:59;;;;;;;;;4.25;3.50;;;;;;;;5055886;28;45394;-84
2022/02/16 10:49:25;;;;;;;;;0.00;0.00;;;;;;;;5055159;28;45432;-82
2022/02/16 10:52:02;;;;;;;;;1.00;0.00;;;;;;;;5056344;28;47256;-82
2022/02/16 10:54:27;;;;;;;;;3.25;2.50;;;;;;;;5062549;28;45466;-84
2022/02/16 10:56:52;;;;;;;;;4.75;3.00;;;;;;;;5056886;28;45578;-82
2022/02/16 10:59:18;;;;;;;;;2.50;1.50;;;;;;;;5052959;28;47211;-84
2022/02/16 11:01:44;;;;;;;;;2.00;1.00;;;;;;;;5053980;28;45446;-83
2022/02/16 11:04:10;;;;;;;;;3.00;0.75;;;;;;;;5059682;28;45335;-83
2022/02/16 11:06:41;;;;;;;;;2.00;0.00;;;;;;;;5054775;28;45441;-84
2022/02/16 11:09:08;;;;;;;;;3.00;2.00;;;;;;;;5054563;28;45507;-84
2022/02/16 11:11:33;;;;;;;;;5.25;3.00;;;;;;;;5056140;28;46341;-84
2022/02/16 11:14:00;;;;;;;;;1.00;1.00;;;;;;;;5059353;28;45390;-84
2022/02/16 11:16:26;;;;;;;;;5.50;3.00;;;;;;;;5056574;28;45213;-84
2022/02/16 11:18:59;;;;;;;;;7.00;5.00;;;;;;;;5057669;27;45892;-83
2022/02/16 11:21:24;;;;;;;;;6.00;5.00;;;;;;;;5056088;28;45561;-84
2022/02/16 11:23:51;;;;;;;;;1.75;1.25;;;;;;;;5054859;28;45347;-83
2022/02/16 11:26:25;;;;;;;;;4.25;2.25;;;;;;;;5057525;28;45617;-84
2022/02/16 11:28:51;;;;;;;;;1.75;1.00;;;;;;;;5055150;28;45483;-84
2022/02/16 11:31:37;;;;;;;;;8.00;4.50;;;;;;;;5054882;28;46233;-84
2022/02/16 11:34:08;;;;;;;;;4.75;4.75;;;;;;;;5055807;28;45311;-82
2022/02/16 11:36:46;;;;;;;;;8.75;7.25;;;;;;;;5057899;28;45399;-84
2022/02/16 11:39:11;;;;;;;;;8.00;4.50;;;;;;;;5057818;28;45550;-83
2022/02/16 11:41:53;;;;;;;;;6.25;4.00;;;;;;;;5058795;28;46224;-84
2022/02/16 11:44:18;;;;;;;;;2.50;2.50;;;;;;;;5055443;28;45321;-83
2022/02/16 11:46:45;;;;;;;;;4.50;3.00;;;;;;;;5054369;28;45357;-83
2022/02/16 11:49:25;;;;;;;;;6.25;3.75;;;;;;;;5053803;28;45446;-83
2022/02/16 11:51:50;;;;;;;;;1.00;1.00;;;;;;;;5053310;28;45501;-84
2022/02/16 11:54:34;;;;;;;;;7.50;5.00;;;;;;;;5054576;28;45522;-84
2022/02/16 11:57:19;;;;;;;;;1.00;0.25;;;;;;;;5055531;28;45304;-80
2022/02/16 11:59:58;;;;;;;;;5.25;2.50;;;;;;;;5057100;28;45473;-83
2022/02/16 12:02:23;;;;;;;;;1.00;1.00;;;;;;;;5054711;28;46212;-83
2022/02/16 12:04:53;;;;;;;;;0.00;0.00;;;;;;;;5058413;28;45467;-82
2022/02/16 12:07:22;;;;;;;;;1.25;0.25;;;;;;;;5057506;28;45429;-83
2022/02/16 12:10:06;;;;;;;;;0.50;0.50;;;;;;;;5058803;28;45464;-83
2022/02/16 12:12:31;;;;;;;;;0.00;0.00;;;;;;;;5056504;28;46364;-84
2022/02/16 12:14:56;;;;;;;;;1.00;0.00;;;;;;;;5056592;28;45295;-84
2022/02/16 12:17:22;;;;;;;;;1.00;1.00;;;;;;;;5056998;28;45462;-83
2022/02/16 12:19:47;;;;;;;;;1.00;0.00;;;;;;;;5056958;28;45627;-82
2022/02/16 12:22:19;;;;;;;;;0.00;0.00;;;;;;;;5058774;28;46292;-82
2022/02/16 12:24:44;;;;;;;;;0.00;0.00;;;;;;;;5058707;28;45604;-84
2022/02/16 12:27:10;;;;;;;;;0.00;0.00;;;;;;;;5042828;28;45450;-84
2022/02/16 12:29:39;;;;;;;;;1.00;1.00;;;;;;;;5060459;28;45296;-84
2022/02/16 12:32:05;;;;;;;;;0.00;0.00;;;;;;;;5060865;28;45547;-84
2022/02/16 12:34:33;;;;;;;;;0.25;0.00;;;;;;;;5057709;28;45801;-83
2022/02/16 12:37:05;;;;;;;;;0.00;0.00;;;;;;;;5060498;28;45567;-84
2022/02/16 12:39:30;;;;;;;;;0.00;0.00;;;;;;;;5064060;28;45426;-83
2022/02/16 12:42:09;;;;;;;;;0.00;0.00;;;;;;;;5056328;28;46091;-83
2022/02/16 12:44:35;;;;;;;;;0.00;0.00;;;;;;;;5056667;28;45394;-83
2022/02/16 12:47:01;;;;;;;;;1.50;0.00;;;;;;;;5058104;28;45376;-84
2022/02/16 12:49:27;;;;;;;;;1.00;0.00;;;;;;;;5061133;28;45391;-82
2022/02/16 12:51:54;;;;;;;;;1.00;1.00;;;;;;;;5059380;28;46172;-83
2022/02/16 12:54:23;;;;;;;;;0.00;0.00;;;;;;;;5058679;28;45266;-84
2022/02/16 12:56:56;;;;;;;;;0.00;0.00;;;;;;;;5060842;28;45373;-84
2022/02/16 12:59:21;;;;;;;;;0.00;0.00;;;;;;;;5058495;28;45478;-84
2022/02/16 13:01:48;;;;;;;;;0.00;0.00;;;;;;;;5057850;28;47028;-84
2022/02/16 13:04:14;;;;;;;;;0.50;0.50;;;;;;;;5057609;28;45375;-82
2022/02/16 13:06:40;;;;;;;;;0.00;0.00;;;;;;;;5059468;28;45424;-83
2022/02/16 13:09:09;;;;;;;;;1.00;1.00;;;;;;;;5057814;27;45311;-83
2022/02/16 13:11:40;;;;;;;;;0.00;0.00;;;;;;;;5056704;28;46495;-83
2022/02/16 13:14:06;;;;;;;;;0.00;0.00;;;;;;;;5055903;28;45344;-83
2022/02/16 13:16:31;;;;;;;;;0.00;0.00;;;;;;;;5055688;28;45389;-83
2022/02/16 13:19:01;;;;;;;;;0.00;0.00;;;;;;;;5062556;28;45435;-83
2022/02/16 13:21:26;;;;;;;;;0.00;0.00;;;;;;;;5057706;28;46352;-84
2022/02/16 13:24:00;;;;;;;;;0.00;0.00;;;;;;;;5056987;28;45425;-84
2022/02/16 13:26:35;;;;;;;;;0.00;0.00;;;;;;;;5056843;28;45321;-84
2022/02/16 13:29:01;;;;;;;;;0.00;0.00;;;;;;;;5040894;28;45378;-83
2022/02/16 13:31:29;;;;;;;;;1.25;0.00;;;;;;;;5056468;28;47102;-83
2022/02/16 13:33:56;;;;;;;;;1.00;0.00;;;;;;;;5058677;28;45347;-83
2022/02/16 13:36:26;;;;;;;;;0.00;0.00;;;;;;;;5044152;28;45426;-83
2022/02/16 13:39:06;;;;;;;;;0.50;0.00;;;;;;;;5061539;28;45931;-83
2022/02/16 13:41:31;;;;;;;;;0.00;0.00;;;;;;;;5061734;28;45385;-83
2022/02/16 13:43:59;;;;;;;;;0.00;0.00;;;;;;;;5062479;28;45558;-83
2022/02/16 13:46:28;;;;;;;;;1.00;0.00;;;;;;;;5059347;28;45507;-84
2022/02/16 13:49:07;;;;;;;;;0.25;0.00;;;;;;;;5057768;28;45362;-84
2022/02/16 13:51:32;;;;;;;;;1.25;0.00;;;;;;;;5062810;28;46257;-83
2022/02/16 13:53:57;;;;;;;;;1.00;1.00;;;;;;;;5039685;28;45296;-83
2022/02/16 13:56:24;;;;;;;;;0.50;0.00;;;;;;;;5057130;27;45348;-84
2022/02/16 13:58:51;;;;;;;;;5.00;3.25;;;;;;;;5057185;28;45308;-83
2022/02/16 14:01:17;;;;;;;;;0.75;0.75;;;;;;;;5062823;28;46210;-82
2022/02/16 14:03:43;;;;;;;;;0.50;0.00;;;;;;;;5060648;28;45241;-84
2022/02/16 14:06:11;;;;;;;;;1.00;0.00;;;;;;;;5062970;27;45277;-84
2022/02/16 14:08:36;;;;;;;;;3.00;0.00;;;;;;;;5057095;28;45621;-85
2022/02/16 14:11:02;;;;;;;;;2.50;0.75;;;;;;;;5059650;28;46069;-84
2022/02/16 14:13:27;;;;;;;;;1.25;1.00;;;;;;;;5056577;28;45396;-83
2022/02/16 14:15:55;;;;;;;;;0.00;0.00;;;;;;;;5056374;28;45376;-83
2022/02/16 14:18:21;;;;;;;;;3.75;1.00;;;;;;;;5057129;28;45383;-83
2022/02/16 14:20:46;;;;;;;;;1.00;0.00;;;;;;;;5058549;28;45428;-84
2022/02/16 14:23:11;;;;;;;;;1.75;0.25;;;;;;;;5061424;28;45307;-83
2022/02/16 14:25:36;;;;;;;;;1.50;1.50;;;;;;;;5058774;28;45331;-84
2022/02/16 14:28:02;;;;;;;;;3.00;0.50;;;;;;;;5058759;28;45209;-83
2022/02/16 14:30:28;;;;;;;;;0.50;0.50;;;;;;;;5055682;28;46895;-83
2022/02/16 14:32:53;;;;;;;;;0.00;0.00;;;;;;;;5057472;28;45517;-84
2022/02/16 14:35:19;;;;;;;;;3.00;0.00;;;;;;;;5036961;28;45365;-82
2022/02/16 14:37:45;;;;;;;;;1.00;0.00;;;;;;;;5054408;28;45385;-84